Time;durP1;ratioP1;P1;durP2;ratioP2;P2;SDS_P1;SDS_P2;PMS_P1;PMS_P2;Temp;Humidity;BMP_temperature;BMP_pressure;BME280_temperature;BME280_humidity;BME280_pressure;Samples;Min_cycle;Max_cycle;Signal;HPM_P1;HPM_P2
2021/03/02 00:01:26;;;;;;;76.60;41.43;;;-1.90;99.90;;;;;;4844304;28;20624;-78
2021/03/02 00:03:49;;;;;;;76.10;39.87;;;-1.90;99.90;;;;;;4847520;28;20658;-79
2021/03/02 00:06:13;;;;;;;70.87;38.33;;;-1.90;99.90;;;;;;4828937;28;21263;-79
2021/03/02 00:08:38;;;;;;;61.30;34.60;;;-2.00;99.90;;;;;;4844473;28;20186;-80
2021/03/02 00:11:01;;;;;;;56.30;32.30;;;-2.00;99.90;;;;;;4844682;28;20624;-80
2021/03/02 00:13:24;;;;;;;52.23;30.57;;;-2.00;99.90;;;;;;4845995;28;20632;-79
2021/03/02 00:15:47;;;;;;;46.13;27.57;;;-2.00;99.90;;;;;;4851517;28;21037;-78
2021/03/02 00:18:13;;;;;;;44.87;26.27;;;-2.20;99.90;;;;;;4846840;28;20620;-78
2021/03/02 00:20:37;;;;;;;50.93;28.90;;;-2.10;99.90;;;;;;4848057;28;21234;-78
2021/03/02 00:23:02;;;;;;;52.37;30.27;;;-2.10;99.90;;;;;;4850120;28;20674;-78
2021/03/02 00:25:28;;;;;;;47.93;27.30;;;-2.10;99.90;;;;;;4846019;28;20655;-79
2021/03/02 00:27:53;;;;;;;48.30;29.13;;;-2.10;99.90;;;;;;4828357;28;20941;-77
2021/03/02 00:30:17;;;;;;;53.93;30.20;;;-2.20;99.90;;;;;;4847080;28;20651;-79
2021/03/02 00:32:40;;;;;;;59.10;32.43;;;-2.20;99.90;;;;;;4844437;28;20687;-79
2021/03/02 00:35:03;;;;;;;61.10;33.53;;;-2.20;99.90;;;;;;4850382;28;20616;-74
2021/03/02 00:37:25;;;;;;;73.40;40.23;;;-2.20;99.90;;;;;;4845680;28;21221;-79
2021/03/02 00:39:48;;;;;;;71.33;38.77;;;-2.20;99.90;;;;;;4844786;28;20613;-74
2021/03/02 00:42:10;;;;;;;65.30;36.70;;;-2.20;99.90;;;;;;4846516;28;20678;-76
2021/03/02 00:44:33;;;;;;;66.33;36.47;;;-2.20;99.90;;;;;;4842569;28;20612;-76
2021/03/02 00:46:55;;;;;;;71.60;40.07;;;-2.30;99.90;;;;;;4845630;28;21193;-79
2021/03/02 00:49:17;;;;;;;72.87;40.80;;;-2.20;99.90;;;;;;4845308;28;21307;-74
2021/03/02 00:51:39;;;;;;;72.87;40.37;;;-2.30;99.90;;;;;;4842462;28;20628;-78
2021/03/02 00:54:02;;;;;;;96.83;52.20;;;-2.20;99.90;;;;;;4846525;28;20774;-77
2021/03/02 00:56:25;;;;;;;116.80;61.70;;;-2.30;99.90;;;;;;4848091;28;21031;-80
2021/03/02 00:58:47;;;;;;;113.77;62.43;;;-2.20;99.90;;;;;;4842695;28;20624;-75
2021/03/02 01:01:09;;;;;;;108.23;59.33;;;-2.10;99.90;;;;;;4846248;28;20612;-79
2021/03/02 01:03:32;;;;;;;140.47;67.60;;;-1.90;99.90;;;;;;4838681;28;20627;-77
2021/03/02 01:05:54;;;;;;;132.13;64.13;;;-1.70;99.90;;;;;;4846757;28;21208;-79
2021/03/02 01:08:21;;;;;;;118.90;60.37;;;-1.60;99.90;;;;;;4844521;28;20631;-80
2021/03/02 01:10:45;;;;;;;115.93;58.70;;;-1.50;99.90;;;;;;4843384;28;21005;-79
2021/03/02 01:13:09;;;;;;;114.53;56.20;;;-1.40;99.90;;;;;;4845275;28;20631;-79
2021/03/02 01:15:32;;;;;;;104.70;54.17;;;-1.50;99.90;;;;;;4845563;28;20958;-76
2021/03/02 01:17:54;;;;;;;94.07;51.00;;;-1.50;99.90;;;;;;4848399;28;20610;-78
2021/03/02 01:20:16;;;;;;;96.70;52.00;;;-1.50;99.90;;;;;;4848328;28;20608;-78
2021/03/02 01:22:39;;;;;;;96.17;51.43;;;-1.60;99.90;;;;;;4849309;28;20635;-79
2021/03/02 01:25:01;;;;;;;109.67;53.67;;;-1.50;99.90;;;;;;4839664;28;21304;-78
2021/03/02 01:27:23;;;;;;;100.00;52.53;;;-1.60;99.90;;;;;;4819675;28;20673;-79
2021/03/02 01:29:47;;;;;;;91.97;50.73;;;-1.60;99.90;;;;;;4850410;28;20659;-79
2021/03/02 01:32:09;;;;;;;91.47;49.40;;;-1.60;99.90;;;;;;4846259;28;20620;-79
2021/03/02 01:34:32;;;;;;;99.03;52.77;;;-1.70;99.90;;;;;;4845714;28;20667;-79
2021/03/02 01:36:54;;;;;;;103.40;54.87;;;-1.70;99.90;;;;;;4846431;28;21059;-79
2021/03/02 01:39:16;;;;;;;109.30;59.23;;;-1.70;99.90;;;;;;4846610;28;20611;-79
2021/03/02 01:41:39;;;;;;;120.97;64.13;;;-1.80;99.90;;;;;;4847339;28;20627;-80
2021/03/02 01:44:01;;;;;;;126.17;63.83;;;-1.80;99.90;;;;;;4847146;28;20611;-79
2021/03/02 01:46:24;;;;;;;131.63;66.60;;;-1.80;99.90;;;;;;4843994;28;20655;-79
2021/03/02 01:48:47;;;;;;;282.80;72.77;;;-1.90;99.90;;;;;;4842696;28;20654;-79
2021/03/02 01:51:10;;;;;;;236.60;61.50;;;-1.90;99.90;;;;;;4847362;28;20623;-80
2021/03/02 01:53:32;;;;;;;483.97;67.93;;;-2.00;99.90;;;;;;4844791;28;20661;-79
2021/03/02 01:55:55;;;;;;;376.80;64.07;;;-2.00;99.90;;;;;;4828948;28;21193;-80
2021/03/02 01:58:17;;;;;;;354.30;65.80;;;-1.90;99.90;;;;;;4846635;28;20616;-79
2021/03/02 02:00:40;;;;;;;367.77;65.67;;;-1.90;99.90;;;;;;4843109;28;21692;-80
2021/03/02 02:03:23;;;;;;;318.30;61.27;;;-1.80;99.90;;;;;;4852183;28;20638;-78
2021/03/02 02:05:50;;;;;;;335.73;59.00;;;-1.80;99.90;;;;;;4851921;28;20722;-80
2021/03/02 02:08:15;;;;;;;341.50;57.83;;;-1.80;99.90;;;;;;4848328;28;20604;-80
2021/03/02 02:10:48;;;;;;;368.53;62.23;;;-1.70;99.90;;;;;;4849664;28;21250;-80
2021/03/02 02:13:17;;;;;;;380.47;61.93;;;-1.70;99.90;;;;;;4848264;28;20642;-80
2021/03/02 02:15:41;;;;;;;403.60;63.50;;;-1.70;99.90;;;;;;4845642;28;20623;-81
2021/03/02 02:18:05;;;;;;;315.80;58.03;;;-1.70;99.90;;;;;;4850407;28;20730;-80
2021/03/02 02:20:39;;;;;;;310.50;56.87;;;-1.70;99.90;;;;;;4848765;28;20980;-81
2021/03/02 02:23:09;;;;;;;235.20;53.20;;;-1.70;99.90;;;;;;4854275;28;20999;-79
2021/03/02 02:25:45;;;;;;;163.90;49.80;;;-1.70;99.90;;;;;;4846642;28;20628;-81
2021/03/02 02:28:10;;;;;;;155.87;52.03;;;-1.80;99.90;;;;;;4847097;28;20666;-80
2021/03/02 02:30:33;;;;;;;147.43;50.77;;;-1.80;99.90;;;;;;4846868;28;20624;-79
2021/03/02 02:32:56;;;;;;;225.83;54.87;;;-1.70;99.90;;;;;;4835136;28;20636;-81
2021/03/02 02:35:21;;;;;;;174.83;51.47;;;-1.70;99.90;;;;;;4849573;28;20615;-80
2021/03/02 02:37:44;;;;;;;170.80;51.57;;;-1.70;99.90;;;;;;4853298;28;20619;-81
2021/03/02 02:40:09;;;;;;;126.97;50.53;;;-1.70;99.90;;;;;;4848316;28;20673;-81
2021/03/02 02:42:32;;;;;;;133.57;50.23;;;-1.80;99.90;;;;;;4849961;28;20667;-81
2021/03/02 02:44:57;;;;;;;108.87;55.37;;;-1.80;99.90;;;;;;4852066;28;21246;-81
2021/03/02 02:47:19;;;;;;;102.77;53.27;;;-1.80;99.90;;;;;;4848908;28;20655;-81
2021/03/02 02:49:42;;;;;;;94.30;51.10;;;-1.80;99.90;;;;;;4849243;28;20660;-82
2021/03/02 02:52:05;;;;;;;100.97;54.43;;;-1.80;99.90;;;;;;4845204;28;20904;-81
2021/03/02 02:54:28;;;;;;;110.73;59.10;;;-1.80;99.90;;;;;;4847021;28;20919;-82
2021/03/02 02:56:53;;;;;;;112.63;59.20;;;-1.80;99.90;;;;;;4829794;28;20633;-79
2021/03/02 02:59:20;;;;;;;107.50;56.67;;;-1.70;99.90;;;;;;4848719;28;20964;-82
2021/03/02 03:01:45;;;;;;;113.63;59.50;;;-1.70;99.90;;;;;;4841984;28;20619;-80
2021/03/02 03:04:12;;;;;;;111.60;60.20;;;-1.60;99.90;;;;;;4841868;28;20621;-82
2021/03/02 03:06:37;;;;;;;131.47;62.47;;;-1.60;99.90;;;;;;4850239;28;21066;-80
2021/03/02 03:09:02;;;;;;;114.20;60.00;;;-1.50;99.90;;;;;;4839765;28;21283;-82
2021/03/02 03:11:28;;;;;;;113.60;59.17;;;-1.50;99.90;;;;;;4849876;28;20655;-81
2021/03/02 03:13:52;;;;;;;103.47;54.60;;;-1.40;99.90;;;;;;4824807;28;21015;-81
2021/03/02 03:16:17;;;;;;;123.27;58.90;;;-1.30;99.90;;;;;;4853433;28;20670;-80
2021/03/02 03:18:46;;;;;;;131.27;62.13;;;-1.30;99.90;;;;;;4847225;28;20627;-81
2021/03/02 03:21:09;;;;;;;139.17;63.00;;;-1.20;99.90;;;;;;4847483;28;20624;-82
2021/03/02 03:23:32;;;;;;;132.97;59.37;;;-1.10;99.90;;;;;;4821019;28;20649;-81
2021/03/02 03:25:55;;;;;;;132.53;60.00;;;-1.00;99.90;;;;;;4847143;28;20615;-81
2021/03/02 03:28:18;;;;;;;135.90;57.50;;;-0.90;99.90;;;;;;4847553;28;20603;-78
2021/03/02 03:30:41;;;;;;;128.40;57.30;;;-0.80;99.90;;;;;;4844768;28;20620;-82
2021/03/02 03:33:08;;;;;;;140.10;57.73;;;-0.70;99.90;;;;;;4852744;28;20608;-77
2021/03/02 03:35:31;;;;;;;133.00;55.50;;;-0.60;99.90;;;;;;4846676;28;20603;-81
2021/03/02 03:37:54;;;;;;;129.80;55.67;;;-0.50;99.90;;;;;;4815559;28;20624;-81
2021/03/02 03:40:16;;;;;;;136.77;55.53;;;-0.50;99.90;;;;;;4847902;28;20677;-79
2021/03/02 03:42:39;;;;;;;118.23;52.93;;;-0.40;99.90;;;;;;4845653;28;20616;-79
2021/03/02 03:45:01;;;;;;;192.63;51.67;;;-0.40;99.90;;;;;;4845893;28;20344;-80
2021/03/02 03:47:23;;;;;;;164.90;50.77;;;-0.30;99.90;;;;;;4844067;28;20663;-81
2021/03/02 03:49:45;;;;;;;144.33;49.27;;;-0.30;99.90;;;;;;4848386;28;20661;-81
2021/03/02 03:52:10;;;;;;;169.30;53.30;;;-0.20;99.90;;;;;;4853165;28;20194;-81
2021/03/02 03:54:34;;;;;;;148.70;47.47;;;-0.10;99.90;;;;;;4842929;28;20665;-76
2021/03/02 03:56:56;;;;;;;129.40;46.97;;;-0.10;99.90;;;;;;4855505;28;20611;-82
2021/03/02 03:59:20;;;;;;;164.20;45.23;;;0.00;99.90;;;;;;4829710;28;20467;-81
2021/03/02 04:01:42;;;;;;;133.90;43.33;;;0.00;99.90;;;;;;4847559;28;20213;-77
2021/03/02 04:04:05;;;;;;;131.40;43.70;;;0.00;99.90;;;;;;4825748;28;20724;-81
2021/03/02 04:06:28;;;;;;;128.47;43.57;;;0.10;99.90;;;;;;4844360;28;20702;-81
2021/03/02 04:08:51;;;;;;;131.20;42.67;;;0.20;99.90;;;;;;4848846;28;20564;-81
2021/03/02 04:11:13;;;;;;;100.63;40.97;;;0.20;99.90;;;;;;4840814;28;20186;-80
2021/03/02 04:13:37;;;;;;;110.33;39.33;;;0.20;99.90;;;;;;4845326;28;20191;-80
2021/03/02 04:16:00;;;;;;;126.63;40.80;;;0.30;99.90;;;;;;4853041;28;21184;-81
2021/03/02 04:18:22;;;;;;;105.33;39.90;;;0.20;99.90;;;;;;4843412;28;21280;-78
2021/03/02 04:20:48;;;;;;;111.63;39.33;;;0.30;99.90;;;;;;4846233;28;20241;-80
2021/03/02 04:23:11;;;;;;;103.83;37.67;;;0.30;99.90;;;;;;4847848;28;20263;-81
2021/03/02 04:25:34;;;;;;;104.20;33.77;;;0.30;99.90;;;;;;4826234;28;20251;-80
2021/03/02 04:27:56;;;;;;;99.37;33.53;;;0.40;99.90;;;;;;4845458;28;20223;-78
2021/03/02 04:30:19;;;;;;;115.47;31.37;;;0.40;99.90;;;;;;4847682;28;20202;-80
2021/03/02 04:32:42;;;;;;;119.17;31.60;;;0.30;99.90;;;;;;4845124;28;20197;-78
2021/03/02 04:35:05;;;;;;;85.33;28.83;;;0.30;99.90;;;;;;4844945;28;21129;-81
2021/03/02 04:37:27;;;;;;;97.60;28.93;;;0.30;99.90;;;;;;4844067;28;20198;-80
2021/03/02 04:39:49;;;;;;;95.07;28.90;;;0.20;99.90;;;;;;4844881;28;20198;-78
2021/03/02 04:42:12;;;;;;;98.53;29.97;;;0.20;99.90;;;;;;4846511;28;20190;-81
2021/03/02 04:44:34;;;;;;;68.20;26.30;;;0.20;99.90;;;;;;4845927;28;20338;-80
2021/03/02 04:46:56;;;;;;;80.00;26.60;;;0.30;99.90;;;;;;4845634;28;20276;-81
2021/03/02 04:49:18;;;;;;;98.23;28.57;;;0.30;99.90;;;;;;4846238;28;20691;-79
2021/03/02 04:51:40;;;;;;;65.03;25.97;;;0.30;99.90;;;;;;4844015;28;20229;-80
2021/03/02 04:54:03;;;;;;;83.00;29.27;;;0.30;99.90;;;;;;4847240;28;20743;-77
2021/03/02 04:56:25;;;;;;;71.33;28.07;;;0.20;99.90;;;;;;4845803;28;20249;-81
2021/03/02 04:58:48;;;;;;;83.77;30.50;;;0.30;99.90;;;;;;4845603;28;20245;-74
2021/03/02 05:01:10;;;;;;;62.50;25.07;;;0.30;99.90;;;;;;4824738;28;20642;-81
2021/03/02 05:03:32;;;;;;;56.17;24.17;;;0.30;99.90;;;;;;4829077;28;20635;-76
2021/03/02 05:05:54;;;;;;;64.40;23.83;;;0.30;99.90;;;;;;4845683;28;20187;-81
2021/03/02 05:08:16;;;;;;;62.27;26.23;;;0.30;99.90;;;;;;4845738;28;20779;-79
2021/03/02 05:10:38;;;;;;;70.87;27.60;;;0.30;99.90;;;;;;4845798;28;20600;-79
2021/03/02 05:13:01;;;;;;;68.20;28.50;;;0.30;99.90;;;;;;4853425;28;20651;-76
2021/03/02 05:15:24;;;;;;;68.30;27.27;;;0.30;99.90;;;;;;4825367;28;20711;-77
2021/03/02 05:17:46;;;;;;;63.47;28.20;;;0.30;99.90;;;;;;4830492;28;20199;-81
2021/03/02 05:20:10;;;;;;;66.57;29.00;;;0.30;99.90;;;;;;4844348;28;20233;-80
2021/03/02 05:22:32;;;;;;;65.90;27.80;;;0.30;99.90;;;;;;4853766;28;20704;-76
2021/03/02 05:24:54;;;;;;;64.03;28.50;;;0.30;99.90;;;;;;4851892;28;20645;-79
2021/03/02 05:27:16;;;;;;;76.23;29.80;;;0.40;99.90;;;;;;4844522;28;20249;-80
2021/03/02 05:29:38;;;;;;;92.03;28.93;;;0.40;99.90;;;;;;4844556;28;20202;-79
2021/03/02 05:32:01;;;;;;;73.97;27.37;;;0.40;99.90;;;;;;4848208;28;20238;-81
2021/03/02 05:34:24;;;;;;;77.17;26.07;;;0.40;99.90;;;;;;4848287;28;20226;-77
2021/03/02 05:36:47;;;;;;;72.93;25.13;;;0.50;99.90;;;;;;4847532;28;20615;-80
2021/03/02 05:39:09;;;;;;;61.23;23.93;;;0.50;99.90;;;;;;4848240;28;20636;-78
2021/03/02 05:41:32;;;;;;;57.90;25.03;;;0.50;99.90;;;;;;4851745;28;20334;-80
2021/03/02 05:43:55;;;;;;;66.03;27.53;;;0.50;99.90;;;;;;4828359;28;20187;-80
2021/03/02 05:46:22;;;;;;;52.43;24.03;;;0.60;99.90;;;;;;4847516;28;20197;-75
2021/03/02 05:48:46;;;;;;;56.50;23.47;;;0.50;99.90;;;;;;4848698;28;20662;-79
2021/03/02 05:51:08;;;;;;;66.43;25.80;;;0.50;99.90;;;;;;4850769;28;20627;-80
2021/03/02 05:53:30;;;;;;;55.43;24.37;;;0.60;99.90;;;;;;4848672;28;20233;-80
2021/03/02 05:55:53;;;;;;;56.57;24.17;;;0.60;99.90;;;;;;4847053;28;20197;-78
2021/03/02 05:58:16;;;;;;;54.40;24.13;;;0.60;99.90;;;;;;4849886;28;20664;-79
2021/03/02 06:00:38;;;;;;;53.73;24.63;;;0.60;99.90;;;;;;4845543;28;20608;-80
2021/03/02 06:03:00;;;;;;;68.60;27.23;;;0.70;99.90;;;;;;4847279;28;20671;-79
2021/03/02 06:05:23;;;;;;;63.20;28.60;;;0.70;99.90;;;;;;4840756;28;20191;-76
2021/03/02 06:07:45;;;;;;;67.83;27.77;;;0.80;99.90;;;;;;4832728;28;20273;-79
2021/03/02 06:10:09;;;;;;;64.27;27.87;;;0.80;99.90;;;;;;4849259;28;20652;-79
2021/03/02 06:12:48;;;;;;;64.57;27.37;;;0.80;99.90;;;;;;4850770;28;20187;-78
2021/03/02 06:15:11;;;;;;;62.87;26.90;;;0.90;99.90;;;;;;4848337;28;20182;-77
2021/03/02 06:17:34;;;;;;;77.97;28.27;;;0.90;99.90;;;;;;4842322;28;20198;-79
2021/03/02 06:19:56;;;;;;;70.93;25.87;;;0.90;99.90;;;;;;4850071;28;20202;-78
2021/03/02 06:22:34;;;;;;;61.03;24.07;;;0.90;99.90;;;;;;4826515;28;20261;-78
2021/03/02 06:24:56;;;;;;;57.77;24.60;;;1.00;99.90;;;;;;4846212;28;21000;-80
2021/03/02 06:27:18;;;;;;;60.13;25.73;;;1.00;99.90;;;;;;4857311;28;20225;-75
2021/03/02 06:29:41;;;;;;;56.70;26.93;;;1.00;99.90;;;;;;4851743;28;20182;-79
2021/03/02 06:32:03;;;;;;;105.53;31.40;;;1.10;99.90;;;;;;4840693;28;20649;-78
2021/03/02 06:34:25;;;;;;;74.47;27.97;;;1.10;99.90;;;;;;4844015;28;20186;-77
2021/03/02 06:36:59;;;;;;;63.73;29.87;;;1.20;99.90;;;;;;4857685;28;20213;-77
2021/03/02 06:39:25;;;;;;;72.17;29.70;;;1.20;99.90;;;;;;4858677;28;20179;-79
2021/03/02 06:41:48;;;;;;;69.47;27.70;;;1.30;99.90;;;;;;4859395;28;20198;-78
2021/03/02 06:44:14;;;;;;;77.13;30.80;;;1.40;99.90;;;;;;4857463;28;20202;-78
2021/03/02 06:46:40;;;;;;;88.23;31.13;;;1.40;99.90;;;;;;4856939;28;20198;-78
2021/03/02 06:49:02;;;;;;;66.90;30.80;;;1.40;99.90;;;;;;4856259;28;20248;-75
2021/03/02 06:51:25;;;;;;;71.93;28.70;;;1.50;99.90;;;;;;4850182;28;20194;-76
2021/03/02 06:54:02;;;;;;;60.87;27.63;;;1.60;99.90;;;;;;4840466;28;20199;-76
2021/03/02 06:56:25;;;;;;;85.53;32.87;;;1.70;99.50;;;;;;4850767;28;20190;-76
2021/03/02 06:59:08;;;;;;;105.67;32.03;;;1.70;99.60;;;;;;4847794;28;20194;-75
2021/03/02 07:01:35;;;;;;;66.50;25.63;;;1.80;98.40;;;;;;4842632;28;20244;-77
2021/03/02 07:04:09;;;;;;;60.70;26.80;;;1.80;91.80;;;;;;4847602;28;21170;-78
2021/03/02 07:06:37;;;;;;;59.13;26.30;;;1.80;84.10;;;;;;4869139;28;20263;-79
2021/03/02 07:08:59;;;;;;;56.73;26.90;;;1.80;79.00;;;;;;4841353;28;20253;-79
2021/03/02 07:11:21;;;;;;;51.33;25.57;;;1.90;67.40;;;;;;4838348;28;20206;-77
2021/03/02 07:13:44;;;;;;;53.87;25.70;;;1.90;69.10;;;;;;4841031;28;20232;-79
2021/03/02 07:16:10;;;;;;;46.47;23.90;;;1.90;60.00;;;;;;4847973;28;20198;-79
2021/03/02 07:18:33;;;;;;;49.10;25.30;;;1.90;48.50;;;;;;4849140;28;20191;-75
2021/03/02 07:21:00;;;;;;;53.63;26.67;;;2.00;53.40;;;;;;4838516;28;20643;-75
2021/03/02 07:23:24;;;;;;;46.50;24.27;;;2.10;56.00;;;;;;4841755;28;20222;-77
2021/03/02 07:25:49;;;;;;;40.50;24.00;;;2.10;50.10;;;;;;4856417;28;20194;-77
2021/03/02 07:28:12;;;;;;;50.50;24.53;;;2.10;46.60;;;;;;4853069;28;20210;-78
2021/03/02 07:30:35;;;;;;;49.80;25.60;;;2.10;44.30;;;;;;4844161;28;20182;-76
2021/03/02 07:32:57;;;;;;;54.63;26.97;;;2.20;47.90;;;;;;4849948;28;20244;-77
2021/03/02 07:35:22;;;;;;;42.10;24.40;;;2.30;49.90;;;;;;4839849;28;20187;-80
2021/03/02 07:37:44;;;;;;;40.97;22.30;;;2.40;46.30;;;;;;4843943;28;20206;-77
2021/03/02 07:40:08;;;;;;;39.03;22.20;;;2.50;41.20;;;;;;4851526;28;20209;-80
2021/03/02 07:42:30;;;;;;;38.73;21.37;;;2.60;34.70;;;;;;4830864;28;20292;-78
2021/03/02 07:45:07;;;;;;;41.50;22.93;;;2.70;31.60;;;;;;4848030;28;20240;-79
2021/03/02 07:47:43;;;;;;;36.17;20.73;;;2.80;29.30;;;;;;4846781;28;20386;-78
2021/03/02 07:50:16;;;;;;;37.07;20.87;;;3.00;18.30;;;;;;4837864;28;20740;-77
2021/03/02 07:52:38;;;;;;;36.87;20.90;;;3.10;1.00;;;;;;4848446;28;20685;-79
2021/03/02 07:55:17;;;;;;;33.57;19.60;;;3.30;1.00;;;;;;4849629;28;20186;-81
2021/03/02 07:57:40;;;;;;;33.37;20.77;;;3.50;1.00;;;;;;4842568;28;20197;-76
2021/03/02 08:00:21;;;;;;;34.43;20.10;;;3.80;1.00;;;;;;4848976;28;20187;-76
2021/03/02 08:03:36;;;;;;;32.90;20.93;;;4.20;1.00;;;;;;4854599;28;20178;-78
2021/03/02 08:06:00;;;;;;;31.77;20.43;;;4.60;1.00;;;;;;4850765;28;20268;-77
2021/03/02 08:08:39;;;;;;;32.80;19.97;;;5.00;1.00;;;;;;4855977;28;20566;-81
2021/03/02 08:11:24;;;;;;;30.53;19.23;;;5.30;1.00;;;;;;4840522;28;20186;-75
2021/03/02 08:13:46;;;;;;;30.03;19.33;;;5.50;99.90;;;;;;4815544;28;20222;-79
2021/03/02 08:16:09;;;;;;;26.67;17.63;;;5.70;1.00;;;;;;4852789;28;20632;-79
2021/03/02 08:18:35;;;;;;;28.07;19.17;;;5.80;99.90;;;;;;4842569;28;20186;-79
2021/03/02 08:21:13;;;;;;;27.47;18.67;;;5.90;1.00;;;;;;4846711;28;20595;-77
2021/03/02 08:23:50;;;;;;;30.87;19.73;;;6.40;13.50;;;;;;4838728;28;20198;-80
2021/03/02 08:26:27;;;;;;;27.10;18.93;;;7.20;1.00;;;;;;4851806;28;20206;-78
2021/03/02 08:29:16;;;;;;;28.63;18.40;;;7.70;99.90;;;;;;4844709;28;20601;-78
2021/03/02 08:31:39;;;;;;;23.40;16.70;;;7.80;1.00;;;;;;4837834;28;20758;-80
2021/03/02 08:34:03;;;;;;;19.60;14.43;;;7.70;1.00;;;;;;4845086;28;20214;-77
2021/03/02 08:36:26;;;;;;;19.93;14.43;;;7.40;1.00;;;;;;4847000;28;20241;-79
2021/03/02 08:38:49;;;;;;;21.97;14.83;;;7.10;1.00;;;;;;4830564;28;20196;-78
2021/03/02 08:41:11;;;;;;;18.37;13.93;;;6.80;1.00;;;;;;4851542;28;20632;-80
2021/03/02 08:43:36;;;;;;;19.57;14.90;;;6.70;85.80;;;;;;4843693;28;20205;-77
2021/03/02 08:46:00;;;;;;;22.17;14.93;;;6.60;99.90;;;;;;4846367;28;20232;-76
2021/03/02 08:48:25;;;;;;;20.10;15.33;;;6.60;99.90;;;;;;4846780;28;20214;-74
2021/03/02 08:50:50;;;;;;;24.70;17.13;;;6.50;99.90;;;;;;4847535;28;20216;-74
2021/03/02 08:53:26;;;;;;;20.23;14.93;;;6.50;1.00;;;;;;4845454;28;20206;-78
2021/03/02 08:55:48;;;;;;;21.43;16.43;;;6.60;1.00;;;;;;4837541;28;20253;-79
2021/03/02 08:58:10;;;;;;;17.20;13.10;;;6.70;1.00;;;;;;4850485;28;20738;-78
2021/03/02 09:00:33;;;;;;;18.50;13.73;;;6.70;1.00;;;;;;4848227;28;20245;-78
2021/03/02 09:02:55;;;;;;;18.03;13.03;;;6.70;1.00;;;;;;4828898;28;20195;-79
2021/03/02 09:05:18;;;;;;;17.67;12.47;;;6.70;1.00;;;;;;4853554;28;20198;-79
2021/03/02 09:07:41;;;;;;;17.67;12.97;;;6.70;99.90;;;;;;4847417;28;20248;-79
2021/03/02 09:10:15;;;;;;;17.93;12.77;;;6.70;1.00;;;;;;4843496;28;20599;-78
2021/03/02 09:12:47;;;;;;;16.93;12.60;;;6.90;1.00;;;;;;4867438;28;20607;-78
2021/03/02 09:15:10;;;;;;;16.80;12.13;;;7.10;99.90;;;;;;4850779;28;20240;-78
2021/03/02 09:17:32;;;;;;;13.83;10.13;;;7.20;1.00;;;;;;4847052;28;20239;-79
2021/03/02 09:19:54;;;;;;;15.57;11.00;;;7.50;99.90;;;;;;4858397;28;20209;-74
2021/03/02 09:22:21;;;;;;;15.07;11.30;;;7.90;99.90;;;;;;4843335;28;20696;-76
2021/03/02 09:24:46;;;;;;;14.07;11.33;;;8.40;99.90;;;;;;4845755;28;20252;-77
2021/03/02 09:27:09;;;;;;;12.83;10.43;;;8.80;34.00;;;;;;4853152;28;20718;-78
2021/03/02 09:29:35;;;;;;;12.27;9.67;;;9.10;1.00;;;;;;4842702;28;20248;-77
2021/03/02 09:31:59;;;;;;;10.93;9.73;;;9.50;1.00;;;;;;4840436;28;20240;-79
2021/03/02 09:34:29;;;;;;;10.60;8.93;;;10.00;1.00;;;;;;4846027;28;20636;-78
2021/03/02 09:36:51;;;;;;;11.07;9.67;;;10.40;1.00;;;;;;4866456;28;20202;-74
2021/03/02 09:39:24;;;;;;;10.37;8.47;;;10.60;1.00;;;;;;4848773;28;20223;-79
2021/03/02 09:41:48;;;;;;;9.30;8.13;;;10.90;1.00;;;;;;4852591;28;20278;-78
2021/03/02 09:44:27;;;;;;;9.40;8.47;;;11.00;1.00;;;;;;4846668;28;20202;-81
2021/03/02 09:46:51;;;;;;;9.63;8.33;;;11.20;1.00;;;;;;4851243;28;20248;-74
2021/03/02 09:49:37;;;;;;;8.07;7.27;;;11.60;1.00;;;;;;4847579;28;20233;-80
2021/03/02 09:52:00;;;;;;;8.30;7.50;;;11.90;1.00;;;;;;4846590;28;20237;-78
2021/03/02 09:54:22;;;;;;;7.80;7.07;;;12.10;1.00;;;;;;4845100;28;20215;-79
2021/03/02 09:56:45;;;;;;;7.10;6.43;;;12.30;1.00;;;;;;4828854;28;20257;-77
2021/03/02 09:59:08;;;;;;;6.60;5.93;;;12.70;1.00;;;;;;4832537;28;20198;-77
2021/03/02 10:01:30;;;;;;;5.03;4.60;;;13.30;1.00;;;;;;4848522;28;20202;-73
2021/03/02 10:03:52;;;;;;;4.67;4.27;;;14.20;1.00;;;;;;4847746;28;20194;-78
2021/03/02 10:06:24;;;;;;;2.97;2.70;;;15.60;1.00;;;;;;4847996;28;20229;-78
2021/03/02 10:08:48;;;;;;;2.00;1.90;;;17.40;1.00;;;;;;4841332;28;20231;-76
2021/03/02 10:11:21;;;;;;;0.93;0.93;;;19.60;1.00;;;;;;4852565;28;20194;-74
2021/03/02 10:13:50;;;;;;;0.40;0.40;;;22.00;1.00;;;;;;4846259;28;20729;-73
2021/03/02 10:16:16;;;;;;;0.20;0.20;;;24.30;99.90;;;;;;4831151;28;20636;-79
2021/03/02 10:18:46;;;;;;;0.10;0.10;;;26.40;99.90;;;;;;4843075;28;20189;-77
2021/03/02 10:21:09;;;;;;;0.10;0.10;;;28.30;99.90;;;;;;4855890;28;20212;-77
2021/03/02 10:23:32;;;;;;;0.10;0.10;;;30.20;99.90;;;;;;4849277;28;20540;-77
2021/03/02 10:25:57;;;;;;;0.20;0.20;;;31.70;99.90;;;;;;4846465;28;20243;-75
2021/03/02 10:28:29;;;;;;;0.10;0.10;;;33.30;99.90;;;;;;4862453;28;20233;-76
2021/03/02 10:30:51;;;;;;;0.10;0.10;;;34.70;99.90;;;;;;4851663;28;20179;-79
2021/03/02 10:33:14;;;;;;;0.10;0.10;;;35.50;99.90;;;;;;4848219;28;20860;-80
2021/03/02 10:35:36;;;;;;;0.10;0.10;;;36.20;99.90;;;;;;4854129;28;20659;-75
2021/03/02 10:37:59;;;;;;;0.10;0.10;;;37.00;99.90;;;;;;4855341;28;20205;-75
2021/03/02 10:40:21;;;;;;;0.20;0.20;;;37.80;99.90;;;;;;4847900;28;20198;-78
2021/03/02 10:42:43;;;;;;;0.20;0.20;;;38.20;99.90;;;;;;4853278;28;20190;-77
2021/03/02 10:45:07;;;;;;;0.20;0.20;;;38.90;99.90;;;;;;4846054;28;20244;-73
2021/03/02 10:47:29;;;;;;;0.20;0.20;;;39.60;99.90;;;;;;4858234;28;20635;-80
2021/03/02 10:49:52;;;;;;;0.10;0.10;;;40.00;99.90;;;;;;4858976;28;20274;-83
2021/03/02 10:52:14;;;;;;;0.20;0.20;;;40.40;99.90;;;;;;4848586;28;20734;-82
2021/03/02 10:54:37;;;;;;;0.10;0.10;;;40.40;99.90;;;;;;4851396;28;20198;-79
2021/03/02 10:56:59;;;;;;;0.10;0.10;;;40.50;99.90;;;;;;4853360;28;20198;-78
2021/03/02 10:59:21;;;;;;;0.10;0.10;;;40.90;99.90;;;;;;4839771;28;20203;-80
2021/03/02 11:01:43;;;;;;;0.10;0.10;;;41.40;99.90;;;;;;4849490;28;20221;-81
2021/03/02 11:04:05;;;;;;;0.10;0.10;;;41.20;99.90;;;;;;4845001;28;20245;-75
2021/03/02 11:06:29;;;;;;;0.10;0.10;;;40.90;99.90;;;;;;4838310;28;20215;-81
2021/03/02 11:08:52;;;;;;;0.10;0.10;;;40.40;99.90;;;;;;4842594;28;20291;-74
2021/03/02 11:11:15;;;;;;;0.13;0.13;;;39.80;99.90;;;;;;4852707;28;20284;-78
2021/03/02 11:13:38;;;;;;;0.13;0.13;;;39.80;99.90;;;;;;4846367;28;20557;-80
2021/03/02 11:16:00;;;;;;;0.13;0.13;;;39.70;99.90;;;;;;4849612;28;20182;-77
2021/03/02 11:18:22;;;;;;;0.20;0.20;;;39.50;99.90;;;;;;4859858;28;20194;-78
2021/03/02 11:20:44;;;;;;;0.10;0.10;;;39.80;99.90;;;;;;4849235;28;20234;-73
2021/03/02 11:23:08;;;;;;;0.10;0.10;;;39.60;99.90;;;;;;4854301;28;20225;-76
2021/03/02 11:25:30;;;;;;;0.10;0.10;;;39.70;99.90;;;;;;4846637;28;20198;-75
2021/03/02 11:27:52;;;;;;;0.10;0.10;;;39.00;99.90;;;;;;4849656;28;20189;-79
2021/03/02 11:30:16;;;;;;;0.20;0.20;;;37.70;99.90;;;;;;4847158;28;20300;-88
2021/03/02 11:32:38;;;;;;;0.10;0.10;;;36.90;99.90;;;;;;4844022;28;20199;-82
2021/03/02 11:35:01;;;;;;;0.15;0.15;;;36.80;99.90;;;;;;4838156;28;20194;-84
2021/03/02 11:37:23;;;;;;;0.20;0.20;;;36.70;99.90;;;;;;4857961;28;20249;-74
2021/03/02 11:39:46;;;;;;;0.20;0.20;;;37.20;99.90;;;;;;4849699;28;20706;-77
2021/03/02 11:42:08;;;;;;;0.10;0.10;;;38.40;99.90;;;;;;4846136;28;20183;-81
2021/03/02 11:44:31;;;;;;;0.10;0.10;;;39.60;99.90;;;;;;4841400;28;20684;-75
2021/03/02 11:46:53;;;;;;;0.10;0.10;;;39.90;99.90;;;;;;4857396;28;20194;-83
2021/03/02 11:49:15;;;;;;;0.20;0.20;;;40.50;99.90;;;;;;4857674;28;20753;-80
2021/03/02 11:51:37;;;;;;;0.17;0.17;;;40.50;99.90;;;;;;4857670;28;20194;-76
2021/03/02 11:53:59;;;;;;;0.10;0.10;;;40.10;99.90;;;;;;4856086;28;20244;-79
2021/03/02 11:56:23;;;;;;;0.10;0.10;;;40.30;99.90;;;;;;4857195;28;20194;-78
2021/03/02 11:58:45;;;;;;;0.10;0.10;;;40.70;99.90;;;;;;4836514;28;20296;-77
2021/03/02 12:01:07;;;;;;;0.20;0.20;;;41.30;99.90;;;;;;4849277;28;20186;-76
2021/03/02 12:03:29;;;;;;;0.10;0.10;;;42.20;99.90;;;;;;4844061;28;20912;-79
2021/03/02 12:05:51;;;;;;;0.10;0.10;;;42.90;99.90;;;;;;4850810;28;20714;-75
2021/03/02 12:08:14;;;;;;;0.10;0.10;;;43.40;99.90;;;;;;4823102;28;20210;-74
2021/03/02 12:10:36;;;;;;;0.20;0.20;;;43.10;99.90;;;;;;4840770;28;20253;-83
2021/03/02 12:12:59;;;;;;;0.20;0.20;;;43.40;99.90;;;;;;4854896;28;20524;-82
2021/03/02 12:15:21;;;;;;;0.10;0.10;;;43.20;99.90;;;;;;4845012;28;20182;-76
2021/03/02 12:17:43;;;;;;;0.20;0.20;;;43.10;99.90;;;;;;4871776;28;20201;-78
2021/03/02 12:20:08;;;;;;;0.17;0.17;;;43.40;99.90;;;;;;4848477;28;20201;-77
2021/03/02 12:22:30;;;;;;;0.10;0.10;;;43.40;99.90;;;;;;4856542;28;20226;-79